createdAt,value
2022-11-27T00:00:23.850Z,30.50
2022-11-27T00:02:50.147Z,29.53
2022-11-27T00:05:17.165Z,27.60
2022-11-27T00:07:43.509Z,29.50
2022-11-27T00:10:09.986Z,27.93
2022-11-27T00:12:36.350Z,34.20
2022-11-27T00:15:02.990Z,28.97
2022-11-27T00:17:29.207Z,28.07
2022-11-27T00:19:55.413Z,25.73
2022-11-27T00:22:21.634Z,26.83
2022-11-27T00:24:47.858Z,24.77
2022-11-27T00:27:14.086Z,26.97
2022-11-27T00:29:40.287Z,27.00
2022-11-27T00:32:08.150Z,26.17
2022-11-27T00:34:34.445Z,22.23
2022-11-27T00:37:00.918Z,25.77
2022-11-27T00:39:29.663Z,20.00
2022-11-27T00:41:55.996Z,23.20
2022-11-27T00:44:22.199Z,29.93
2022-11-27T00:46:48.528Z,22.93
2022-11-27T00:49:15.569Z,27.53
2022-11-27T00:51:41.998Z,25.53
2022-11-27T00:54:08.575Z,24.23
2022-11-27T00:56:35.965Z,29.73
2022-11-27T00:59:02.806Z,24.70
2022-11-27T01:01:31.236Z,29.17
2022-11-27T01:03:58.497Z,22.93
2022-11-27T01:06:25.161Z,26.20
2022-11-27T01:08:51.621Z,28.70
2022-11-27T01:11:19.395Z,23.87
2022-11-27T01:13:46.179Z,27.47
2022-11-27T01:16:13.571Z,24.60
2022-11-27T01:18:40.716Z,21.97
2022-11-27T01:21:07.572Z,26.10
2022-11-27T01:23:33.804Z,26.13
2022-11-27T01:26:00.855Z,22.90
2022-11-27T01:28:27.094Z,26.20
2022-11-27T01:30:53.537Z,27.67
2022-11-27T01:33:20.096Z,24.77
2022-11-27T01:35:59.886Z,28.30
2022-11-27T01:38:26.618Z,23.40
2022-11-27T01:41:04.552Z,22.23
2022-11-27T01:43:39.898Z,24.00
2022-11-27T01:46:12.516Z,20.93
2022-11-27T01:48:38.845Z,23.37
2022-11-27T01:51:05.149Z,26.93
2022-11-27T01:53:31.548Z,29.93
2022-11-27T01:55:59.712Z,20.17
2022-11-27T01:58:27.945Z,22.17
2022-11-27T02:00:54.184Z,19.53
2022-11-27T02:03:20.825Z,24.33
2022-11-27T02:05:47.132Z,24.17
2022-11-27T02:08:15.274Z,17.73
2022-11-27T02:10:49.082Z,20.50
2022-11-27T02:13:18.083Z,24.30
2022-11-27T02:15:55.725Z,17.00
2022-11-27T02:18:27.358Z,19.77
2022-11-27T02:20:58.163Z,26.00
2022-11-27T02:23:45.297Z,23.47
2022-11-27T02:26:29.705Z,19.50
2022-11-27T02:29:00.834Z,21.10
2022-11-27T02:31:34.855Z,21.23
2022-11-27T02:34:10.367Z,28.47
2022-11-27T02:36:39.782Z,24.17
2022-11-27T02:39:09.259Z,20.87
2022-11-27T02:41:44.527Z,21.13
2022-11-27T02:44:11.110Z,25.23
2022-11-27T02:46:37.816Z,19.80
2022-11-27T02:49:06.356Z,19.77
2022-11-27T02:51:39.028Z,24.13
2022-11-27T02:54:06.131Z,21.07
2022-11-27T02:56:33.685Z,25.27
2022-11-27T02:59:01.384Z,25.23
2022-11-27T03:01:29.522Z,18.93
2022-11-27T03:03:57.186Z,21.33
2022-11-27T03:06:43.703Z,24.67
2022-11-27T03:09:18.766Z,19.53
2022-11-27T03:11:45.250Z,27.03
2022-11-27T03:14:12.373Z,20.73
2022-11-27T03:16:57.319Z,23.17
2022-11-27T03:19:30.687Z,23.23
2022-11-27T03:21:58.489Z,23.47
2022-11-27T03:24:25.026Z,20.80
2022-11-27T03:26:51.647Z,20.63
2022-11-27T03:29:20.281Z,16.50
2022-11-27T03:31:46.851Z,20.90
2022-11-27T03:34:13.299Z,22.30
2022-11-27T03:36:39.525Z,22.20
2022-11-27T03:39:05.878Z,18.57
2022-11-27T03:41:34.898Z,22.47
2022-11-27T03:44:10.259Z,25.13
2022-11-27T03:46:49.932Z,23.00
2022-11-27T03:49:35.059Z,23.37
2022-11-27T03:52:20.102Z,24.43
2022-11-27T03:54:59.086Z,22.07
2022-11-27T03:57:29.110Z,24.83
2022-11-27T03:59:56.606Z,22.37
2022-11-27T04:02:31.500Z,22.50
2022-11-27T04:04:57.963Z,21.87
2022-11-27T04:07:24.250Z,20.80
2022-11-27T04:09:50.505Z,21.20
2022-11-27T04:12:16.735Z,21.57
2022-11-27T04:14:43.049Z,18.87
2022-11-27T04:17:09.394Z,20.40
2022-11-27T04:19:35.655Z,22.63
2022-11-27T04:22:01.891Z,18.00
2022-11-27T04:24:28.133Z,17.93
2022-11-27T04:26:54.381Z,22.13
2022-11-27T04:29:20.601Z,20.70
2022-11-27T04:31:46.923Z,22.93
2022-11-27T04:34:13.263Z,23.10
2022-11-27T04:36:40.672Z,19.97
2022-11-27T04:39:06.985Z,22.37
2022-11-27T04:41:33.281Z,17.90
2022-11-27T04:43:59.493Z,23.10
2022-11-27T04:46:25.820Z,23.50
2022-11-27T04:48:52.054Z,20.50
2022-11-27T04:51:18.279Z,24.33
2022-11-27T04:53:44.488Z,20.77
2022-11-27T04:56:10.743Z,22.33
2022-11-27T04:58:36.961Z,22.50
2022-11-27T05:01:03.230Z,21.80
2022-11-27T05:03:29.607Z,21.30
2022-11-27T05:05:56.760Z,18.10
2022-11-27T05:08:23.605Z,23.53
2022-11-27T05:11:08.527Z,23.60
2022-11-27T05:13:34.905Z,20.27
2022-11-27T05:16:01.480Z,22.47
2022-11-27T05:18:27.766Z,26.43
2022-11-27T05:21:00.890Z,18.33
2022-11-27T05:23:27.431Z,22.50
2022-11-27T05:25:53.724Z,22.80
2022-11-27T05:28:26.244Z,23.80
2022-11-27T05:30:52.958Z,25.03
2022-11-27T05:33:19.218Z,23.03
2022-11-27T05:35:45.666Z,23.77
2022-11-27T05:38:12.822Z,26.43
2022-11-27T05:40:39.417Z,25.47
2022-11-27T05:43:05.669Z,19.07
2022-11-27T05:45:31.900Z,22.37
2022-11-27T05:47:59.436Z,23.77
2022-11-27T05:50:25.761Z,22.53
2022-11-27T05:52:51.987Z,24.87
2022-11-27T05:55:18.219Z,24.33
2022-11-27T05:57:44.451Z,24.50
2022-11-27T06:00:11.035Z,24.17
2022-11-27T06:02:37.411Z,20.90
2022-11-27T06:05:03.815Z,24.00
2022-11-27T06:07:30.980Z,25.63
2022-11-27T06:09:57.269Z,21.37
2022-11-27T06:12:23.507Z,27.97
2022-11-27T06:14:49.738Z,21.60
2022-11-27T06:17:16.551Z,21.77
2022-11-27T06:19:43.001Z,26.23
2022-11-27T06:22:09.233Z,26.33
2022-11-27T06:24:35.520Z,28.67
2022-11-27T06:27:01.760Z,21.63
2022-11-27T06:29:27.970Z,24.27
2022-11-27T06:31:54.280Z,22.27
2022-11-27T06:34:29.497Z,22.53
2022-11-27T06:36:55.743Z,23.40
2022-11-27T06:39:22.026Z,27.30
2022-11-27T06:41:48.271Z,24.93
2022-11-27T06:44:14.519Z,24.37
2022-11-27T06:46:40.771Z,23.10
2022-11-27T06:49:08.018Z,22.93
2022-11-27T06:51:34.310Z,23.60
2022-11-27T06:54:01.283Z,26.33
2022-11-27T06:56:28.682Z,21.47
2022-11-27T06:58:56.006Z,23.43
2022-11-27T07:01:23.095Z,27.23
2022-11-27T07:03:55.894Z,25.17
2022-11-27T07:06:22.983Z,20.03
2022-11-27T07:08:49.546Z,21.87
2022-11-27T07:11:18.344Z,23.60
2022-11-27T07:13:45.336Z,25.13
2022-11-27T07:16:12.931Z,20.20
2022-11-27T07:18:43.249Z,24.40
2022-11-27T07:21:09.918Z,22.27
2022-11-27T07:23:36.575Z,22.17
2022-11-27T07:26:10.635Z,21.63
2022-11-27T07:28:36.896Z,23.43
2022-11-27T07:31:03.481Z,24.17
2022-11-27T07:33:29.756Z,26.23
2022-11-27T07:35:59.583Z,23.70
2022-11-27T07:38:25.847Z,22.87
2022-11-27T07:40:53.816Z,23.63
2022-11-27T07:43:20.457Z,23.73
2022-11-27T07:45:46.808Z,22.50
2022-11-27T07:48:13.111Z,23.70
2022-11-27T07:50:39.546Z,20.67
2022-11-27T07:53:05.798Z,26.83
2022-11-27T07:55:32.094Z,21.30
2022-11-27T07:57:58.338Z,21.00
2022-11-27T08:00:24.622Z,22.43
2022-11-27T08:02:52.491Z,24.57
2022-11-27T08:05:18.761Z,26.57
2022-11-27T08:07:45.169Z,19.70
2022-11-27T08:10:11.493Z,24.73
2022-11-27T08:12:37.775Z,21.70
2022-11-27T08:15:05.683Z,21.80
2022-11-27T08:17:31.962Z,19.07
2022-11-27T08:19:58.211Z,21.30
2022-11-27T08:22:24.443Z,19.90
2022-11-27T08:24:51.583Z,24.10
2022-11-27T08:27:17.842Z,25.37
2022-11-27T08:29:44.055Z,22.60
2022-11-27T08:32:10.797Z,22.13
2022-11-27T08:34:37.191Z,20.30
2022-11-27T08:37:04.409Z,19.87
2022-11-27T08:39:30.619Z,22.03
2022-11-27T08:41:56.865Z,19.63
2022-11-27T08:44:23.070Z,17.47
2022-11-27T08:46:49.307Z,23.50
2022-11-27T08:49:15.593Z,17.77
2022-11-27T08:51:41.982Z,22.13
2022-11-27T08:54:08.438Z,18.43
2022-11-27T08:56:36.052Z,21.57
2022-11-27T08:59:02.495Z,16.33
2022-11-27T09:01:29.805Z,20.57
2022-11-27T09:03:56.244Z,17.43
2022-11-27T09:06:28.128Z,16.73
2022-11-27T09:08:58.769Z,19.73
2022-11-27T09:11:24.984Z,20.60
2022-11-27T09:13:51.263Z,16.80
2022-11-27T09:16:18.415Z,18.57
2022-11-27T09:18:45.594Z,17.07
2022-11-27T09:21:12.628Z,20.30
2022-11-27T09:23:39.733Z,19.50
2022-11-27T09:26:07.189Z,16.83
2022-11-27T09:28:33.714Z,17.63
2022-11-27T09:31:00.918Z,19.53
2022-11-27T09:33:28.218Z,20.37
2022-11-27T09:35:54.713Z,17.60
2022-11-27T09:38:21.002Z,17.40
2022-11-27T09:40:48.617Z,19.57
2022-11-27T09:43:15.950Z,17.10
2022-11-27T09:45:44.625Z,16.00
2022-11-27T09:48:20.481Z,19.87
2022-11-27T09:50:50.351Z,17.10
2022-11-27T09:53:28.971Z,16.93
2022-11-27T09:55:57.297Z,19.47
2022-11-27T09:58:40.191Z,18.03
2022-11-27T10:01:17.117Z,16.73
2022-11-27T10:03:44.299Z,16.33
2022-11-27T10:06:15.798Z,18.23
2022-11-27T10:08:46.805Z,18.60
2022-11-27T10:11:24.023Z,15.43
2022-11-27T10:13:59.479Z,14.90
2022-11-27T10:16:44.332Z,15.13
2022-11-27T10:19:34.330Z,20.20
2022-11-27T10:22:05.553Z,16.80
2022-11-27T10:24:37.456Z,16.77
2022-11-27T10:27:10.400Z,13.60
2022-11-27T10:29:39.447Z,19.87
2022-11-27T10:32:33.040Z,14.73
2022-11-27T10:35:02.138Z,16.53
2022-11-27T10:37:32.318Z,15.83
2022-11-27T10:40:07.207Z,16.10
2022-11-27T10:42:48.782Z,15.07
2022-11-27T10:45:33.987Z,14.10
2022-11-27T10:48:00.221Z,15.37
2022-11-27T10:50:26.486Z,19.10
2022-11-27T10:52:55.945Z,16.83
2022-11-27T10:55:34.155Z,15.00
2022-11-27T10:58:08.624Z,16.50
2022-11-27T11:00:35.230Z,14.40
2022-11-27T11:03:02.633Z,17.40
2022-11-27T11:08:17.007Z,13.63
2022-11-27T11:10:49.492Z,17.53
2022-11-27T11:13:15.773Z,16.20
2022-11-27T11:15:51.963Z,17.07
2022-11-27T11:18:22.953Z,16.87
2022-11-27T11:20:53.318Z,15.83
2022-11-27T11:23:24.897Z,14.77
2022-11-27T11:25:53.015Z,17.47
2022-11-27T11:28:19.618Z,16.93
2022-11-27T11:30:57.156Z,14.43
2022-11-27T11:33:23.539Z,15.43
2022-11-27T11:35:54.438Z,16.50
2022-11-27T11:38:24.618Z,17.50
2022-11-27T11:40:58.518Z,17.00
2022-11-27T11:43:33.569Z,16.50
2022-11-27T11:46:09.422Z,16.13
2022-11-27T11:48:36.949Z,17.70
2022-11-27T11:51:15.809Z,15.80
2022-11-27T11:53:45.356Z,13.70
2022-11-27T11:56:28.151Z,15.07
2022-11-27T11:58:58.898Z,14.90
2022-11-27T12:01:44.017Z,15.40
2022-11-27T12:04:29.313Z,15.23
2022-11-27T12:06:55.517Z,15.53
2022-11-27T12:09:24.534Z,13.70
2022-11-27T12:12:09.635Z,15.67
2022-11-27T12:14:45.015Z,14.70
2022-11-27T12:17:29.882Z,16.23
2022-11-27T12:20:17.027Z,13.97
2022-11-27T12:23:01.966Z,19.50
2022-11-27T12:25:28.748Z,16.37
2022-11-27T12:28:22.277Z,15.17
2022-11-27T12:31:00.953Z,16.27
2022-11-27T12:33:36.679Z,14.67
2022-11-27T12:36:20.940Z,15.30
2022-11-27T12:39:07.252Z,17.80
2022-11-27T12:41:51.689Z,17.83
2022-11-27T12:44:23.151Z,13.80
2022-11-27T12:47:04.466Z,15.47
2022-11-27T12:49:40.394Z,16.47
2022-11-27T12:52:06.579Z,15.90
2022-11-27T12:54:38.294Z,14.47
2022-11-27T12:57:07.982Z,17.77
2022-11-27T12:59:36.941Z,14.67
2022-11-27T13:02:09.347Z,15.23
2022-11-27T13:04:44.573Z,14.20
2022-11-27T13:07:13.808Z,15.43
2022-11-27T13:09:58.969Z,13.73
2022-11-27T13:12:30.587Z,17.63
2022-11-27T13:15:06.607Z,19.13
2022-11-27T13:17:38.839Z,15.93
2022-11-27T13:20:06.659Z,18.17
2022-11-27T13:22:36.020Z,16.90
2022-11-27T13:25:02.560Z,17.90
2022-11-27T13:27:30.611Z,16.90
2022-11-27T13:29:58.902Z,14.40
2022-11-27T13:32:27.262Z,15.87
2022-11-27T13:34:55.189Z,19.43
2022-11-27T13:37:26.685Z,14.27
2022-11-27T13:39:59.483Z,16.07
2022-11-27T13:42:26.134Z,16.73
2022-11-27T13:44:53.555Z,15.80
2022-11-27T13:47:21.808Z,18.13
2022-11-27T13:49:57.839Z,16.40
2022-11-27T13:52:24.293Z,14.33
2022-11-27T13:54:57.621Z,12.97
2022-11-27T13:57:24.243Z,18.60
2022-11-27T14:00:16.818Z,15.23
2022-11-27T14:02:50.888Z,15.53
2022-11-27T14:05:21.298Z,13.43
2022-11-27T14:07:49.130Z,16.57
2022-11-27T14:10:18.452Z,18.73
2022-11-27T14:12:53.302Z,17.87
2022-11-27T14:15:24.143Z,18.50
2022-11-27T14:17:51.808Z,15.67
2022-11-27T14:20:18.017Z,16.50
2022-11-27T14:23:10.379Z,15.23
2022-11-27T14:25:38.238Z,19.30
2022-11-27T14:28:12.415Z,14.00
2022-11-27T14:30:40.860Z,16.03
2022-11-27T14:33:16.511Z,16.07
2022-11-27T14:35:42.759Z,14.40
2022-11-27T14:38:10.221Z,13.17
2022-11-27T14:40:36.454Z,13.90
2022-11-27T14:43:30.293Z,15.00
2022-11-27T14:46:01.745Z,16.60
2022-11-27T14:48:31.274Z,15.20
2022-11-27T14:50:58.022Z,15.13
2022-11-27T14:53:26.150Z,14.80
2022-11-27T14:55:54.788Z,15.20
2022-11-27T14:58:24.505Z,12.23
2022-11-27T15:01:02.635Z,15.97
2022-11-27T15:03:32.881Z,13.80
2022-11-27T15:05:59.130Z,12.87
2022-11-27T15:08:26.441Z,16.27
2022-11-27T15:10:54.275Z,17.00
2022-11-27T15:13:24.952Z,12.97
2022-11-27T15:16:05.526Z,13.23
2022-11-27T15:18:33.808Z,14.83
2022-11-27T15:21:00.625Z,14.87
2022-11-27T15:23:28.476Z,11.37
2022-11-27T15:26:00.558Z,17.00
2022-11-27T15:28:37.435Z,14.00
2022-11-27T15:31:22.738Z,15.77
2022-11-27T15:33:59.724Z,12.50
2022-11-27T15:36:26.772Z,18.07
2022-11-27T15:39:04.006Z,16.43
2022-11-27T15:41:30.901Z,16.93
2022-11-27T15:43:57.334Z,14.90
2022-11-27T15:46:25.040Z,16.77
2022-11-27T15:48:51.482Z,15.87
2022-11-27T15:51:17.759Z,13.97
2022-11-27T15:53:44.044Z,16.00
2022-11-27T15:56:10.350Z,17.23
2022-11-27T15:58:36.565Z,15.87
2022-11-27T16:01:04.750Z,14.07
2022-11-27T16:03:34.049Z,20.63
2022-11-27T16:06:04.317Z,16.47
2022-11-27T16:08:30.682Z,15.23
2022-11-27T16:10:59.421Z,14.67
2022-11-27T16:13:25.637Z,15.60
2022-11-27T16:15:51.891Z,15.83
2022-11-27T16:18:18.468Z,16.63
2022-11-27T16:20:44.685Z,17.57
2022-11-27T16:23:10.901Z,16.73
2022-11-27T16:25:39.875Z,13.73
2022-11-27T16:28:06.102Z,17.07
2022-11-27T16:30:32.412Z,17.23
2022-11-27T16:32:58.675Z,15.33
2022-11-27T16:35:25.117Z,15.67
2022-11-27T16:37:51.316Z,16.73
2022-11-27T16:40:17.562Z,13.73
2022-11-27T16:42:43.774Z,16.50
2022-11-27T16:45:10.097Z,16.50
2022-11-27T16:47:36.306Z,17.73
2022-11-27T16:50:02.667Z,17.97
2022-11-27T16:52:28.988Z,15.20
2022-11-27T16:54:55.748Z,17.23
2022-11-27T16:57:21.953Z,17.37
2022-11-27T16:59:50.682Z,16.43
2022-11-27T17:02:17.045Z,18.10
2022-11-27T17:04:46.255Z,21.77
2022-11-27T17:07:12.538Z,15.87
2022-11-27T17:09:41.347Z,23.50
2022-11-27T17:12:07.841Z,19.97
2022-11-27T17:14:36.773Z,16.67
2022-11-27T17:17:03.181Z,17.20
2022-11-27T17:19:31.614Z,22.00
2022-11-27T17:21:57.813Z,18.90
2022-11-27T17:24:25.728Z,19.30
2022-11-27T17:26:53.373Z,15.53
2022-11-27T17:29:23.088Z,19.77
2022-11-27T17:31:50.182Z,17.57
2022-11-27T17:34:17.101Z,20.30
2022-11-27T17:36:45.048Z,19.83
2022-11-27T17:39:12.507Z,20.10
2022-11-27T17:41:39.968Z,21.20
2022-11-27T17:44:06.613Z,15.43
2022-11-27T17:46:33.458Z,16.47
2022-11-27T17:49:02.554Z,20.73
2022-11-27T17:51:33.039Z,17.93
2022-11-27T17:54:01.133Z,17.63
2022-11-27T17:56:28.545Z,15.67
2022-11-27T17:58:55.024Z,17.00
2022-11-27T18:01:23.384Z,14.80
2022-11-27T18:03:50.181Z,26.37
2022-11-27T18:06:17.250Z,16.83
2022-11-27T18:08:44.035Z,17.77
2022-11-27T18:11:15.157Z,18.97
2022-11-27T18:13:41.547Z,18.50
2022-11-27T18:16:09.238Z,14.47
2022-11-27T18:18:38.115Z,19.00
2022-11-27T18:21:18.322Z,17.67
2022-11-27T18:24:20.639Z,21.03
2022-11-27T18:27:00.353Z,19.53
2022-11-27T18:29:19.524Z,19.17
2022-11-27T18:31:46.771Z,16.00
2022-11-27T18:34:13.157Z,16.80
2022-11-27T18:36:39.391Z,16.00
2022-11-27T18:39:05.683Z,14.57
2022-11-27T18:41:31.923Z,18.40
2022-11-27T18:43:58.244Z,16.33
2022-11-27T18:46:24.539Z,20.40
2022-11-27T18:48:51.648Z,16.33
2022-11-27T18:51:19.438Z,16.90
2022-11-27T18:53:45.823Z,18.37
2022-11-27T18:56:19.737Z,15.43
2022-11-27T18:58:46.715Z,15.13
2022-11-27T19:01:14.748Z,17.67
2022-11-27T19:03:43.005Z,18.40
2022-11-27T19:06:10.178Z,18.47
2022-11-27T19:08:37.119Z,17.73
2022-11-27T19:11:10.401Z,18.57
2022-11-27T19:13:36.723Z,15.50
2022-11-27T19:16:10.657Z,19.43
2022-11-27T19:18:36.988Z,15.57
2022-11-27T19:21:22.781Z,18.17
2022-11-27T19:23:49.559Z,17.70
2022-11-27T19:26:17.609Z,12.40
2022-11-27T19:28:45.306Z,16.20
2022-11-27T19:31:13.094Z,17.17
2022-11-27T19:33:40.526Z,16.07
2022-11-27T19:36:08.614Z,16.63
2022-11-27T19:38:35.305Z,18.70
2022-11-27T19:41:01.859Z,20.77
2022-11-27T19:43:28.104Z,14.27
2022-11-27T19:45:54.453Z,20.67
2022-11-27T19:48:23.358Z,18.63
2022-11-27T19:50:51.584Z,18.57
2022-11-27T19:53:17.989Z,15.07
2022-11-27T19:55:47.174Z,16.10
2022-11-27T19:58:14.132Z,16.37
2022-11-27T20:00:40.494Z,15.73
2022-11-27T20:03:06.835Z,16.47
2022-11-27T20:05:33.056Z,18.17
2022-11-27T20:07:59.594Z,16.00
2022-11-27T20:10:26.262Z,16.80
2022-11-27T20:12:52.492Z,17.10
2022-11-27T20:15:19.512Z,17.67
2022-11-27T20:17:45.934Z,12.93
2022-11-27T20:20:13.345Z,13.57
2022-11-27T20:22:39.761Z,16.83
2022-11-27T20:25:21.744Z,18.50
2022-11-27T20:27:48.133Z,17.00
2022-11-27T20:30:14.442Z,17.07
2022-11-27T20:32:40.733Z,16.23
2022-11-27T20:35:07.199Z,14.63
2022-11-27T20:37:34.009Z,18.53
2022-11-27T20:40:01.521Z,16.10
2022-11-27T20:42:27.754Z,16.90
2022-11-27T20:44:53.982Z,17.83
2022-11-27T20:47:20.219Z,17.40
2022-11-27T20:49:46.442Z,16.60
2022-11-27T20:52:14.417Z,18.47
2022-11-27T20:54:40.796Z,17.33
2022-11-27T20:57:08.746Z,16.67
2022-11-27T20:59:35.059Z,15.93
2022-11-27T21:02:02.686Z,16.10
2022-11-27T21:04:29.018Z,16.27
2022-11-27T21:06:56.555Z,16.30
2022-11-27T21:09:22.863Z,16.77
2022-11-27T21:11:49.139Z,17.30
2022-11-27T21:14:16.115Z,19.63
2022-11-27T21:16:44.831Z,18.67
2022-11-27T21:19:13.645Z,20.77
2022-11-27T21:21:39.866Z,20.47
2022-11-27T21:24:06.515Z,16.60
2022-11-27T21:26:32.773Z,20.27
2022-11-27T21:28:59.031Z,18.27
2022-11-27T21:31:27.002Z,20.60
2022-11-27T21:33:54.434Z,19.00
2022-11-27T21:36:22.378Z,17.63
2022-11-27T21:38:48.921Z,19.27
2022-11-27T21:41:17.401Z,22.20
2022-11-27T21:43:44.212Z,20.57
2022-11-27T21:46:15.183Z,15.53
2022-11-27T21:48:41.472Z,19.87
2022-11-27T21:51:12.497Z,15.47
2022-11-27T21:53:42.843Z,20.33
2022-11-27T21:56:10.236Z,20.40
2022-11-27T21:58:37.154Z,18.63
2022-11-27T22:01:04.095Z,20.17
2022-11-27T22:03:42.140Z,20.57
2022-11-27T22:06:12.851Z,24.33
2022-11-27T22:08:39.529Z,22.63
2022-11-27T22:11:06.640Z,16.23
2022-11-27T22:13:32.936Z,20.47
2022-11-27T22:15:59.405Z,21.93
2022-11-27T22:18:25.653Z,24.83
2022-11-27T22:20:52.077Z,26.07
2022-11-27T22:23:18.289Z,23.40
2022-11-27T22:25:44.502Z,19.57
2022-11-27T22:28:10.724Z,22.40
2022-11-27T22:30:37.068Z,20.50
2022-11-27T22:33:03.418Z,18.90
2022-11-27T22:35:29.657Z,21.47
2022-11-27T22:37:55.873Z,23.70
2022-11-27T22:40:22.658Z,24.27
2022-11-27T22:42:48.881Z,19.40
2022-11-27T22:45:15.149Z,24.57
2022-11-27T22:47:41.416Z,21.80
2022-11-27T22:50:07.727Z,23.07
2022-11-27T22:52:34.994Z,20.57
2022-11-27T22:55:01.279Z,20.60
2022-11-27T22:57:27.534Z,21.40
2022-11-27T22:59:53.784Z,20.50
2022-11-27T23:02:20.091Z,19.87
2022-11-27T23:04:46.391Z,21.63
2022-11-27T23:07:12.740Z,19.63
2022-11-27T23:09:39.002Z,25.07
2022-11-27T23:12:05.396Z,19.07
2022-11-27T23:14:31.784Z,21.70
2022-11-27T23:16:58.502Z,21.93
2022-11-27T23:19:24.840Z,21.80
2022-11-27T23:21:51.090Z,21.93
2022-11-27T23:24:17.317Z,24.47
2022-11-27T23:26:43.937Z,20.30
2022-11-27T23:29:10.375Z,18.53
2022-11-27T23:31:36.799Z,23.47
2022-11-27T23:34:04.851Z,20.50
2022-11-27T23:36:32.100Z,26.63
2022-11-27T23:39:02.134Z,17.93
2022-11-27T23:41:29.053Z,20.30
2022-11-27T23:43:55.725Z,23.87
2022-11-27T23:46:23.555Z,22.87
2022-11-27T23:48:49.862Z,24.70
2022-11-27T23:51:17.762Z,22.87
2022-11-27T23:53:44.097Z,22.37
2022-11-27T23:56:12.319Z,22.77
2022-11-27T23:58:43.669Z,21.70
